PWSweather.com
Personal Weather Stations
Station Observations
KNJMONTV22
Montville, NJ 07045

Montville, NJ 07045

Lat: 40.912651, Lon: -74.35162209999999

Elevation: 318

Station Type: Davis Vantage Pro2

Latest ConditionsUpdated 2:10:00 AM EDT Saturday, May 25, 2019
Currently Today's Max Today's Min Today's Average
Temperature 54.1°F12.3°C 58.8°F14.9°C 54.1°F12.3°C 55.8°F13.2°C
Dew Point 49.4°F9.7°C 50.1°F10.1°C 49.1°F9.5°C 49.5°F9.7°C
Winds Calm Calm 0.9 mph -1.4 kmh - - 0.0 mph 0.0 kmh
Wind Gusts 0.9 mph1.4 kmh 3.0 mph4.8 kmh - -
Humidity 84% 85% 71% 80%
Pressure 30.17 in1021.7 mb 30.17 in1021.7 mb 30.14 in1020.7 mb -
Hour Temp Dew Point Humidity Winds Wind Gusts Pressure Precip Precip Rate Daily Precip Total
02:10 AM 54.1°F12.3°C 49.4°F9.7°C 84% Calm Calm 0.9 mph1.4 kmh 30.17 in1021.7 mb 0.00 in0.0 mm 0.00 in0.0 mm 0.00 in0.0 mm
02:09 AM 54.1°F12.3°C 49.4°F9.7°C 84% Calm Calm 0.9 mph1.4 kmh 30.17 in1021.7 mb 0.00 in0.0 mm 0.00 in0.0 mm 0.00 in0.0 mm
02:08 AM 54.1°F12.3°C 49.4°F9.7°C 84% Calm Calm 0.9 mph1.4 kmh 30.17 in1021.7 mb 0.00 in0.0 mm 0.00 in0.0 mm 0.00 in0.0 mm
02:07 AM 54.1°F12.3°C 49.4°F9.7°C 84% Calm Calm 0.9 mph1.4 kmh 30.17 in1021.7 mb 0.00 in0.0 mm 0.00 in0.0 mm 0.00 in0.0 mm
02:06 AM 54.1°F12.3°C 49.4°F9.7°C 84% Calm Calm 0.9 mph1.4 kmh 30.17 in1021.7 mb 0.00 in0.0 mm 0.00 in0.0 mm 0.00 in0.0 mm
02:05 AM 54.1°F12.3°C 49.4°F9.7°C 84% Calm Calm 0.9 mph1.4 kmh 30.17 in1021.7 mb 0.00 in0.0 mm 0.00 in0.0 mm 0.00 in0.0 mm
02:04 AM 54.1°F12.3°C 49.4°F9.7°C 84% Calm Calm 0.9 mph1.4 kmh 30.17 in1021.7 mb 0.00 in0.0 mm 0.00 in0.0 mm 0.00 in0.0 mm
02:03 AM 54.1°F12.3°C 49.4°F9.7°C 84% Calm Calm 0.9 mph1.4 kmh 30.17 in1021.7 mb 0.00 in0.0 mm 0.00 in0.0 mm 0.00 in0.0 mm
02:02 AM 54.1°F12.3°C 49.4°F9.7°C 84% Calm Calm 0.9 mph1.4 kmh 30.17 in1021.7 mb 0.00 in0.0 mm 0.00 in0.0 mm 0.00 in0.0 mm
02:01 AM 54.1°F12.3°C 49.4°F9.7°C 84% Calm Calm -- 30.17 in1021.7 mb 0.00 in0.0 mm 0.00 in0.0 mm 0.00 in0.0 mm
01:59 AM 54.1°F12.3°C 49.4°F9.7°C 84% Calm Calm 1.0 mph1.6 kmh 30.17 in1021.7 mb 0.00 in0.0 mm 0.00 in0.0 mm 0.00 in0.0 mm
01:57 AM 54.1°F12.3°C 49.4°F9.7°C 84% Calm Calm 1.0 mph1.6 kmh 30.17 in1021.7 mb 0.00 in0.0 mm 0.00 in0.0 mm 0.00 in0.0 mm
01:56 AM 54.1°F12.3°C 49.4°F9.7°C 84% Calm Calm 1.0 mph1.6 kmh 30.17 in1021.7 mb 0.00 in0.0 mm 0.00 in0.0 mm 0.00 in0.0 mm
01:55 AM 54.1°F12.3°C 49.4°F9.7°C 84% Calm Calm 1.0 mph1.6 kmh 30.17 in1021.7 mb 0.00 in0.0 mm 0.00 in0.0 mm 0.00 in0.0 mm
01:54 AM 54.1°F12.3°C 49.4°F9.7°C 84% Calm Calm 1.0 mph1.6 kmh 30.17 in1021.7 mb 0.00 in0.0 mm 0.00 in0.0 mm 0.00 in0.0 mm
01:53 AM 54.1°F12.3°C 49.4°F9.7°C 84% Calm Calm 1.0 mph1.6 kmh 30.17 in1021.7 mb 0.00 in0.0 mm 0.00 in0.0 mm 0.00 in0.0 mm
01:52 AM 54.1°F12.3°C 49.4°F9.7°C 84% Calm Calm 1.0 mph1.6 kmh 30.17 in1021.7 mb 0.00 in0.0 mm 0.00 in0.0 mm 0.00 in0.0 mm
01:51 AM 54.1°F12.3°C 49.4°F9.7°C 84% Calm Calm 1.0 mph1.6 kmh 30.17 in1021.7 mb 0.00 in0.0 mm 0.00 in0.0 mm 0.00 in0.0 mm
01:50 AM 54.1°F12.3°C 49.4°F9.7°C 84% Calm Calm 1.0 mph1.6 kmh 30.17 in1021.7 mb 0.00 in0.0 mm 0.00 in0.0 mm 0.00 in0.0 mm
01:49 AM 54.1°F12.3°C 49.4°F9.7°C 84% Calm Calm 1.0 mph1.6 kmh 30.17 in1021.7 mb 0.00 in0.0 mm 0.00 in0.0 mm 0.00 in0.0 mm
01:48 AM 54.3°F12.4°C 49.6°F9.8°C 84% Calm Calm 0.9 mph1.4 kmh 30.17 in1021.7 mb 0.00 in0.0 mm 0.00 in0.0 mm 0.00 in0.0 mm
01:47 AM 54.3°F12.4°C 49.6°F9.8°C 84% Calm Calm 0.9 mph1.4 kmh 30.17 in1021.7 mb 0.00 in0.0 mm 0.00 in0.0 mm 0.00 in0.0 mm
01:46 AM 54.3°F12.4°C 49.6°F9.8°C 84% Calm Calm 0.9 mph1.4 kmh 30.17 in1021.7 mb 0.00 in0.0 mm 0.00 in0.0 mm 0.00 in0.0 mm
01:45 AM 54.3°F12.4°C 49.6°F9.8°C 84% Calm Calm 0.9 mph1.4 kmh 30.17 in1021.7 mb 0.00 in0.0 mm 0.00 in0.0 mm 0.00 in0.0 mm
01:44 AM 54.3°F12.4°C 49.6°F9.8°C 84% Calm Calm 0.9 mph1.4 kmh 30.17 in1021.7 mb 0.00 in0.0 mm 0.00 in0.0 mm 0.00 in0.0 mm
01:43 AM 54.3°F12.4°C 49.6°F9.8°C 84% Calm Calm 0.9 mph1.4 kmh 30.17 in1021.7 mb 0.00 in0.0 mm 0.00 in0.0 mm 0.00 in0.0 mm
01:42 AM 54.3°F12.4°C 49.6°F9.8°C 84% Calm Calm 0.9 mph1.4 kmh 30.17 in1021.7 mb 0.00 in0.0 mm 0.00 in0.0 mm 0.00 in0.0 mm
01:41 AM 54.3°F12.4°C 49.6°F9.8°C 84% Calm Calm 0.9 mph1.4 kmh 30.17 in1021.7 mb 0.00 in0.0 mm 0.00 in0.0 mm 0.00 in0.0 mm
01:40 AM 54.3°F12.4°C 49.6°F9.8°C 84% Calm Calm 0.9 mph1.4 kmh 30.17 in1021.7 mb 0.00 in0.0 mm 0.00 in0.0 mm 0.00 in0.0 mm
01:39 AM 54.3°F12.4°C 49.9°F9.9°C 85% Calm Calm 0.9 mph1.4 kmh 30.17 in1021.7 mb 0.00 in0.0 mm 0.00 in0.0 mm 0.00 in0.0 mm
01:38 AM 54.3°F12.4°C 49.6°F9.8°C 84% Calm Calm 0.9 mph1.4 kmh 30.17 in1021.7 mb 0.00 in0.0 mm 0.00 in0.0 mm 0.00 in0.0 mm
01:37 AM 54.3°F12.4°C 49.6°F9.8°C 84% Calm Calm 0.9 mph1.4 kmh 30.17 in1021.7 mb 0.00 in0.0 mm 0.00 in0.0 mm 0.00 in0.0 mm
01:35 AM 54.1°F12.3°C 49.4°F9.7°C 84% Calm Calm 0.9 mph1.4 kmh 30.17 in1021.7 mb 0.00 in0.0 mm 0.00 in0.0 mm 0.00 in0.0 mm
01:34 AM 54.1°F12.3°C 49.4°F9.7°C 84% Calm Calm 0.9 mph1.4 kmh 30.17 in1021.7 mb 0.00 in0.0 mm 0.00 in0.0 mm 0.00 in0.0 mm
01:33 AM 54.1°F12.3°C 49.4°F9.7°C 84% Calm Calm 0.9 mph1.4 kmh 30.17 in1021.7 mb 0.00 in0.0 mm 0.00 in0.0 mm 0.00 in0.0 mm
01:32 AM 54.1°F12.3°C 49.1°F9.5°C 83% Calm Calm 0.9 mph1.4 kmh 30.17 in1021.7 mb 0.00 in0.0 mm 0.00 in0.0 mm 0.00 in0.0 mm
01:31 AM 54.1°F12.3°C 49.1°F9.5°C 83% Calm Calm 0.9 mph1.4 kmh 30.17 in1021.7 mb 0.00 in0.0 mm 0.00 in0.0 mm 0.00 in0.0 mm
01:30 AM 54.1°F12.3°C 49.1°F9.5°C 83% Calm Calm 0.9 mph1.4 kmh 30.16 in1021.3 mb 0.00 in0.0 mm 0.00 in0.0 mm 0.00 in0.0 mm
01:29 AM 54.3°F12.4°C 49.2°F9.6°C 83% Calm Calm 0.9 mph1.4 kmh 30.17 in1021.7 mb 0.00 in0.0 mm 0.00 in0.0 mm 0.00 in0.0 mm
01:28 AM 54.1°F12.3°C 49.1°F9.5°C 83% Calm Calm 0.9 mph1.4 kmh 30.17 in1021.7 mb 0.00 in0.0 mm 0.00 in0.0 mm 0.00 in0.0 mm
01:27 AM 54.3°F12.4°C 49.2°F9.6°C 83% Calm Calm 0.9 mph1.4 kmh 30.17 in1021.7 mb 0.00 in0.0 mm 0.00 in0.0 mm 0.00 in0.0 mm
01:26 AM 54.3°F12.4°C 49.2°F9.6°C 83% Calm Calm 0.9 mph1.4 kmh 30.17 in1021.7 mb 0.00 in0.0 mm 0.00 in0.0 mm 0.00 in0.0 mm
01:25 AM 54.3°F12.4°C 49.2°F9.6°C 83% Calm Calm 0.9 mph1.4 kmh 30.17 in1021.7 mb 0.00 in0.0 mm 0.00 in0.0 mm 0.00 in0.0 mm
01:24 AM 54.3°F12.4°C 49.2°F9.6°C 83% Calm Calm 0.9 mph1.4 kmh 30.17 in1021.7 mb 0.00 in0.0 mm 0.00 in0.0 mm 0.00 in0.0 mm
01:23 AM 54.3°F12.4°C 49.2°F9.6°C 83% Calm Calm -- 30.17 in1021.7 mb 0.00 in0.0 mm 0.00 in0.0 mm 0.00 in0.0 mm
01:22 AM 54.3°F12.4°C 49.2°F9.6°C 83% Calm Calm -- 30.17 in1021.7 mb 0.00 in0.0 mm 0.00 in0.0 mm 0.00 in0.0 mm
01:21 AM 54.3°F12.4°C 49.2°F9.6°C 83% Calm Calm -- 30.17 in1021.7 mb 0.00 in0.0 mm 0.00 in0.0 mm 0.00 in0.0 mm
01:20 AM 54.5°F12.5°C 49.4°F9.7°C 83% Calm Calm -- 30.17 in1021.7 mb 0.00 in0.0 mm 0.00 in0.0 mm 0.00 in0.0 mm
01:19 AM 54.5°F12.5°C 49.1°F9.5°C 82% Calm Calm -- 30.17 in1021.7 mb 0.00 in0.0 mm 0.00 in0.0 mm 0.00 in0.0 mm
01:18 AM 54.5°F12.5°C 49.1°F9.5°C 82% Calm Calm -- 30.17 in1021.7 mb 0.00 in0.0 mm 0.00 in0.0 mm 0.00 in0.0 mm
01:17 AM 54.7°F12.6°C 49.3°F9.6°C 82% Calm Calm -- 30.17 in1021.7 mb 0.00 in0.0 mm 0.00 in0.0 mm 0.00 in0.0 mm
01:16 AM 54.7°F12.6°C 49.3°F9.6°C 82% Calm Calm -- 30.17 in1021.7 mb 0.00 in0.0 mm 0.00 in0.0 mm 0.00 in0.0 mm
01:15 AM 54.7°F12.6°C 49.3°F9.6°C 82% Calm Calm -- 30.17 in1021.7 mb 0.00 in0.0 mm 0.00 in0.0 mm 0.00 in0.0 mm
01:14 AM 54.9°F12.7°C 49.5°F9.7°C 82% Calm Calm -- 30.16 in1021.3 mb 0.00 in0.0 mm 0.00 in0.0 mm 0.00 in0.0 mm
01:13 AM 54.9°F12.7°C 49.2°F9.6°C 81% Calm Calm -- 30.16 in1021.3 mb 0.00 in0.0 mm 0.00 in0.0 mm 0.00 in0.0 mm
01:12 AM 54.9°F12.7°C 49.2°F9.6°C 81% Calm Calm -- 30.17 in1021.7 mb 0.00 in0.0 mm 0.00 in0.0 mm 0.00 in0.0 mm
01:11 AM 55.0°F12.8°C 49.3°F9.6°C 81% Calm Calm -- 30.16 in1021.3 mb 0.00 in0.0 mm 0.00 in0.0 mm 0.00 in0.0 mm
01:10 AM 55.0°F12.8°C 49.3°F9.6°C 81% Calm Calm -- 30.17 in1021.7 mb 0.00 in0.0 mm 0.00 in0.0 mm 0.00 in0.0 mm
01:09 AM 55.0°F12.8°C 49.3°F9.6°C 81% Calm Calm -- 30.17 in1021.7 mb 0.00 in0.0 mm 0.00 in0.0 mm 0.00 in0.0 mm
01:08 AM 55.0°F12.8°C 49.3°F9.6°C 81% Calm Calm -- 30.17 in1021.7 mb 0.00 in0.0 mm 0.00 in0.0 mm 0.00 in0.0 mm
01:07 AM 55.0°F12.8°C 49.3°F9.6°C 81% Calm Calm -- 30.17 in1021.7 mb 0.00 in0.0 mm 0.00 in0.0 mm 0.00 in0.0 mm
01:06 AM 55.2°F12.9°C 49.5°F9.7°C 81% Calm Calm -- 30.17 in1021.7 mb 0.00 in0.0 mm 0.00 in0.0 mm 0.00 in0.0 mm
01:05 AM 55.2°F12.9°C 49.5°F9.7°C 81% Calm Calm -- 30.17 in1021.7 mb 0.00 in0.0 mm 0.00 in0.0 mm 0.00 in0.0 mm
01:04 AM 55.2°F12.9°C 49.5°F9.7°C 81% Calm Calm -- 30.17 in1021.7 mb 0.00 in0.0 mm 0.00 in0.0 mm 0.00 in0.0 mm
01:03 AM 55.4°F13.0°C 49.3°F9.6°C 80% Calm Calm -- 30.17 in1021.7 mb 0.00 in0.0 mm 0.00 in0.0 mm 0.00 in0.0 mm
01:02 AM 55.4°F13.0°C 49.3°F9.6°C 80% Calm Calm 1.0 mph1.6 kmh 30.17 in1021.7 mb 0.00 in0.0 mm 0.00 in0.0 mm 0.00 in0.0 mm
01:01 AM 55.6°F13.1°C 49.5°F9.7°C 80% Calm Calm 1.0 mph1.6 kmh 30.16 in1021.3 mb 0.00 in0.0 mm 0.00 in0.0 mm 0.00 in0.0 mm
01:00 AM 55.6°F13.1°C 49.5°F9.7°C 80% Calm Calm 1.0 mph1.6 kmh 30.16 in1021.3 mb 0.00 in0.0 mm 0.00 in0.0 mm 0.00 in0.0 mm
12:59 AM 55.6°F13.1°C 49.5°F9.7°C 80% Calm Calm 1.0 mph1.6 kmh 30.16 in1021.3 mb 0.00 in0.0 mm 0.00 in0.0 mm 0.00 in0.0 mm
12:58 AM 55.8°F13.2°C 49.7°F9.8°C 80% Calm Calm 1.0 mph1.6 kmh 30.16 in1021.3 mb 0.00 in0.0 mm 0.00 in0.0 mm 0.00 in0.0 mm
12:57 AM 55.8°F13.2°C 49.7°F9.8°C 80% Calm Calm 1.0 mph1.6 kmh 30.16 in1021.3 mb 0.00 in0.0 mm 0.00 in0.0 mm 0.00 in0.0 mm
12:56 AM 55.9°F13.3°C 49.8°F9.9°C 80% Calm Calm 1.0 mph1.6 kmh 30.16 in1021.3 mb 0.00 in0.0 mm 0.00 in0.0 mm 0.00 in0.0 mm
12:55 AM 55.9°F13.3°C 49.5°F9.7°C 79% Calm Calm 1.0 mph1.6 kmh 30.16 in1021.3 mb 0.00 in0.0 mm 0.00 in0.0 mm 0.00 in0.0 mm
12:54 AM 55.9°F13.3°C 49.5°F9.7°C 79% Calm Calm 1.0 mph1.6 kmh 30.16 in1021.3 mb 0.00 in0.0 mm 0.00 in0.0 mm 0.00 in0.0 mm
12:53 AM 55.9°F13.3°C 49.5°F9.7°C 79% Calm Calm 1.0 mph1.6 kmh 30.16 in1021.3 mb 0.00 in0.0 mm 0.00 in0.0 mm 0.00 in0.0 mm
12:52 AM 56.1°F13.4°C 49.7°F9.8°C 79% Calm Calm 0.9 mph1.4 kmh 30.16 in1021.3 mb 0.00 in0.0 mm 0.00 in0.0 mm 0.00 in0.0 mm
12:51 AM 56.1°F13.4°C 49.7°F9.8°C 79% Calm Calm 0.9 mph1.4 kmh 30.16 in1021.3 mb 0.00 in0.0 mm 0.00 in0.0 mm 0.00 in0.0 mm
12:50 AM 56.1°F13.4°C 49.7°F9.8°C 79% Calm Calm 0.9 mph1.4 kmh 30.16 in1021.3 mb 0.00 in0.0 mm 0.00 in0.0 mm 0.00 in0.0 mm
12:49 AM 56.1°F13.4°C 49.7°F9.8°C 79% Calm Calm 0.9 mph1.4 kmh 30.16 in1021.3 mb 0.00 in0.0 mm 0.00 in0.0 mm 0.00 in0.0 mm
12:48 AM 56.1°F13.4°C 49.7°F9.8°C 79% Calm Calm 1.0 mph1.6 kmh 30.16 in1021.3 mb 0.00 in0.0 mm 0.00 in0.0 mm 0.00 in0.0 mm
12:47 AM 56.3°F13.5°C 49.5°F9.7°C 78% Calm Calm 1.0 mph1.6 kmh 30.16 in1021.3 mb 0.00 in0.0 mm 0.00 in0.0 mm 0.00 in0.0 mm
12:46 AM 56.5°F13.6°C 49.7°F9.8°C 78% Calm Calm 1.0 mph1.6 kmh 30.16 in1021.3 mb 0.00 in0.0 mm 0.00 in0.0 mm 0.00 in0.0 mm
12:45 AM 56.5°F13.6°C 49.7°F9.8°C 78% Calm Calm 1.0 mph1.6 kmh 30.16 in1021.3 mb 0.00 in0.0 mm 0.00 in0.0 mm 0.00 in0.0 mm
12:44 AM 56.5°F13.6°C 49.7°F9.8°C 78% Calm Calm 1.0 mph1.6 kmh 30.16 in1021.3 mb 0.00 in0.0 mm 0.00 in0.0 mm 0.00 in0.0 mm
12:43 AM 56.7°F13.7°C 49.9°F9.9°C 78% Calm Calm 1.0 mph1.6 kmh 30.16 in1021.3 mb 0.00 in0.0 mm 0.00 in0.0 mm 0.00 in0.0 mm
12:42 AM 56.7°F13.7°C 49.6°F9.8°C 77% Calm Calm 1.0 mph1.6 kmh 30.16 in1021.3 mb 0.00 in0.0 mm 0.00 in0.0 mm 0.00 in0.0 mm
12:41 AM 56.7°F13.7°C 49.6°F9.8°C 77% Calm Calm 1.0 mph1.6 kmh 30.16 in1021.3 mb 0.00 in0.0 mm 0.00 in0.0 mm 0.00 in0.0 mm
12:40 AM 56.8°F13.8°C 49.7°F9.8°C 77% Calm Calm 1.0 mph1.6 kmh 30.16 in1021.3 mb 0.00 in0.0 mm 0.00 in0.0 mm 0.00 in0.0 mm
12:39 AM 56.8°F13.8°C 49.7°F9.8°C 77% Calm Calm 1.0 mph1.6 kmh 30.16 in1021.3 mb 0.00 in0.0 mm 0.00 in0.0 mm 0.00 in0.0 mm
12:38 AM 56.8°F13.8°C 49.7°F9.8°C 77% Calm Calm 0.9 mph1.4 kmh 30.16 in1021.3 mb 0.00 in0.0 mm 0.00 in0.0 mm 0.00 in0.0 mm
12:37 AM 56.8°F13.8°C 49.3°F9.6°C 76% Calm Calm 0.9 mph1.4 kmh 30.16 in1021.3 mb 0.00 in0.0 mm 0.00 in0.0 mm 0.00 in0.0 mm
12:36 AM 57.0°F13.9°C 49.5°F9.7°C 76% Calm Calm 0.9 mph1.4 kmh 30.16 in1021.3 mb 0.00 in0.0 mm 0.00 in0.0 mm 0.00 in0.0 mm
12:35 AM 57.0°F13.9°C 49.5°F9.7°C 76% Calm Calm 0.9 mph1.4 kmh 30.16 in1021.3 mb 0.00 in0.0 mm 0.00 in0.0 mm 0.00 in0.0 mm
12:34 AM 57.2°F14.0°C 49.7°F9.8°C 76% Calm Calm 0.9 mph1.4 kmh 30.16 in1021.3 mb 0.00 in0.0 mm 0.00 in0.0 mm 0.00 in0.0 mm
12:33 AM 57.2°F14.0°C 49.7°F9.8°C 76% Calm Calm 0.9 mph1.4 kmh 30.16 in1021.3 mb 0.00 in0.0 mm 0.00 in0.0 mm 0.00 in0.0 mm
12:32 AM 57.4°F14.1°C 49.9°F9.9°C 76% Calm Calm 0.9 mph1.4 kmh 30.16 in1021.3 mb 0.00 in0.0 mm 0.00 in0.0 mm 0.00 in0.0 mm
12:31 AM 57.4°F14.1°C 49.9°F9.9°C 76% Calm Calm 0.9 mph1.4 kmh 30.16 in1021.3 mb 0.00 in0.0 mm 0.00 in0.0 mm 0.00 in0.0 mm
12:29 AM 57.6°F14.2°C 50.1°F10.1°C 76% Calm Calm 0.9 mph1.4 kmh 30.16 in1021.3 mb 0.00 in0.0 mm 0.00 in0.0 mm 0.00 in0.0 mm
12:28 AM 57.6°F14.2°C 50.1°F10.1°C 76% Calm Calm 2.0 mph3.2 kmh 30.16 in1021.3 mb 0.00 in0.0 mm 0.00 in0.0 mm 0.00 in0.0 mm
12:27 AM 57.6°F14.2°C 50.1°F10.1°C 76% Calm Calm 2.0 mph3.2 kmh 30.16 in1021.3 mb 0.00 in0.0 mm 0.00 in0.0 mm 0.00 in0.0 mm
12:26 AM 57.7°F14.3°C 49.8°F9.9°C 75% Calm Calm 2.0 mph3.2 kmh 30.16 in1021.3 mb 0.00 in0.0 mm 0.00 in0.0 mm 0.00 in0.0 mm
12:25 AM 57.7°F14.3°C 49.8°F9.9°C 75% Calm Calm 2.0 mph3.2 kmh 30.16 in1021.3 mb 0.00 in0.0 mm 0.00 in0.0 mm 0.00 in0.0 mm
12:24 AM 57.7°F14.3°C 49.8°F9.9°C 75% Calm Calm 2.0 mph3.2 kmh 30.16 in1021.3 mb 0.00 in0.0 mm 0.00 in0.0 mm 0.00 in0.0 mm
12:23 AM 57.9°F14.4°C 50.0°F10.0°C 75% Calm Calm 2.0 mph3.2 kmh 30.16 in1021.3 mb 0.00 in0.0 mm 0.00 in0.0 mm 0.00 in0.0 mm
12:22 AM 57.9°F14.4°C 50.0°F10.0°C 75% Calm Calm 2.0 mph3.2 kmh 30.15 in1021.0 mb 0.00 in0.0 mm 0.00 in0.0 mm 0.00 in0.0 mm
12:21 AM 58.1°F14.5°C 49.9°F9.9°C 74% Calm Calm 2.0 mph3.2 kmh 30.15 in1021.0 mb 0.00 in0.0 mm 0.00 in0.0 mm 0.00 in0.0 mm
12:20 AM 58.1°F14.5°C 49.9°F9.9°C 74% Calm Calm 2.0 mph3.2 kmh 30.15 in1021.0 mb 0.00 in0.0 mm 0.00 in0.0 mm 0.00 in0.0 mm
12:19 AM 58.3°F14.6°C 50.0°F10.0°C 74% Calm Calm 2.0 mph3.2 kmh 30.16 in1021.3 mb 0.00 in0.0 mm 0.00 in0.0 mm 0.00 in0.0 mm
12:18 AM 58.3°F14.6°C 50.0°F10.0°C 74% Calm Calm 2.0 mph3.2 kmh 30.15 in1021.0 mb 0.00 in0.0 mm 0.00 in0.0 mm 0.00 in0.0 mm
12:17 AM 58.3°F14.6°C 49.7°F9.8°C 73% Calm Calm 2.0 mph3.2 kmh 30.15 in1021.0 mb 0.00 in0.0 mm 0.00 in0.0 mm 0.00 in0.0 mm
12:16 AM 58.3°F14.6°C 49.7°F9.8°C 73% Calm Calm 3.0 mph4.8 kmh 30.15 in1021.0 mb 0.00 in0.0 mm 0.00 in0.0 mm 0.00 in0.0 mm
12:15 AM 58.5°F14.7°C 49.9°F9.9°C 73% Calm Calm 3.0 mph4.8 kmh 30.15 in1021.0 mb 0.00 in0.0 mm 0.00 in0.0 mm 0.00 in0.0 mm
12:14 AM 58.5°F14.7°C 49.9°F9.9°C 73% Calm Calm 3.0 mph4.8 kmh 30.15 in1021.0 mb 0.00 in0.0 mm 0.00 in0.0 mm 0.00 in0.0 mm
12:13 AM 58.5°F14.7°C 49.9°F9.9°C 73% Calm Calm 3.0 mph4.8 kmh 30.15 in1021.0 mb 0.00 in0.0 mm 0.00 in0.0 mm 0.00 in0.0 mm
12:12 AM 58.5°F14.7°C 49.5°F9.7°C 72% Calm Calm 3.0 mph4.8 kmh 30.15 in1021.0 mb 0.00 in0.0 mm 0.00 in0.0 mm 0.00 in0.0 mm
12:11 AM 58.5°F14.7°C 49.9°F9.9°C 73% Calm Calm 3.0 mph4.8 kmh 30.15 in1021.0 mb 0.00 in0.0 mm 0.00 in0.0 mm 0.00 in0.0 mm
12:10 AM 58.5°F14.7°C 49.5°F9.7°C 72% Calm Calm 3.0 mph4.8 kmh 30.15 in1021.0 mb 0.00 in0.0 mm 0.00 in0.0 mm 0.00 in0.0 mm
12:09 AM 58.5°F14.7°C 49.5°F9.7°C 72% Calm Calm 3.0 mph4.8 kmh 30.15 in1021.0 mb 0.00 in0.0 mm 0.00 in0.0 mm 0.00 in0.0 mm
12:08 AM 58.5°F14.7°C 49.5°F9.7°C 72% Calm Calm 3.0 mph4.8 kmh 30.15 in1021.0 mb 0.00 in0.0 mm 0.00 in0.0 mm 0.00 in0.0 mm
12:07 AM 58.6°F14.8°C 49.6°F9.8°C 72% Calm Calm 3.0 mph4.8 kmh 30.15 in1021.0 mb 0.00 in0.0 mm 0.00 in0.0 mm 0.00 in0.0 mm
12:06 AM 58.6°F14.8°C 49.6°F9.8°C 72% Calm Calm 2.9 mph4.7 kmh 30.15 in1021.0 mb 0.00 in0.0 mm 0.00 in0.0 mm 0.00 in0.0 mm
12:05 AM 58.6°F14.8°C 49.6°F9.8°C 72% 0.9 mph ENE1.4 kmh ENE 3.0 mph4.8 kmh 30.15 in1021.0 mb 0.00 in0.0 mm 0.00 in0.0 mm 0.00 in0.0 mm
12:04 AM 58.6°F14.8°C 49.6°F9.8°C 72% Calm Calm 3.0 mph4.8 kmh 30.14 in1020.7 mb 0.00 in0.0 mm 0.00 in0.0 mm 0.00 in0.0 mm
12:03 AM 58.6°F14.8°C 49.6°F9.8°C 72% Calm Calm 3.0 mph4.8 kmh 30.15 in1021.0 mb 0.00 in0.0 mm 0.00 in0.0 mm 0.00 in0.0 mm
12:02 AM 58.6°F14.8°C 49.6°F9.8°C 72% Calm Calm 3.0 mph4.8 kmh 30.14 in1020.7 mb 0.00 in0.0 mm 0.00 in0.0 mm 0.00 in0.0 mm
12:01 AM 58.8°F14.9°C 49.8°F9.9°C 72% 0.9 mph ENE1.4 kmh ENE 3.0 mph4.8 kmh 30.14 in1020.7 mb 0.00 in0.0 mm 0.00 in0.0 mm 0.00 in0.0 mm
12:00 AM 58.8°F14.9°C 49.4°F9.7°C 71% 0.9 mph ENE1.4 kmh ENE 3.0 mph4.8 kmh 30.14 in1020.7 mb 0.00 in0.0 mm 0.00 in0.0 mm 0.00 in0.0 mm